TOURFACTS.DK  
Stats and Facts from Tour de France.

Tour de France 2019 starts in 348 days
  Riders   Stages   Teams   Summits   Yearly  


 
Search by year

After 2018 - Stage 14:
 15000 starters.
  5163 different riders.
  639 teams.
  2246 stages.
  456 restdays.
  441957.60 km.
  5678 abandonnees.


Top 3
GC
Christopher Froome86:20:55
Rigoberto Urán86:21:49
Romain Bardet86:23:15
Climb
Warren Barguil169 pt.
Primoz Roglic80 pt.
Thomas De Gendt64 pt.
Sprint
Michael Matthews359 pt.
André Greipel234 pt.
Edvald Boasson Hagen220 pt.
Youth
Simon Yates86:27:09
Louis Meintjes86:29:15
Emanuel Buchmann86:54:16
Facts from Tour de France 1935
  |   Stages.  |   Stage winners.  |   Days in yellow  |   Average speed.  |   Route.  |   Teams.  |   All riders.  |   Rookies.  |  

  |   Withdrawls.  |   GC.  |   Polka  |   Green  |   White  |   Summits. (In tour)  |   Miscellaneous.  |  

Stage 13b on July 17th. 1935
         Owning:    Romain Maes    
Pick a stage:  1 2 3 4 5a 5b 6 7 8 9 10 11 12 13a 13b 14a 14b 15 16 17 18a 18b 19a 19b 20a 20b 21
From: Nîmes    To: MontpellierDist:56.00 km.

Average speed for all riders in stage:  42,320 km./hr.
    Place:Name:Team:Time:Km/h:
FRAGeorges SpeicherFRAFrance01:16:04  +  00:00:00=44,172 
FRARené ViettoFRAFrance01:16:04  +  00:00:00=44,172 
FRAMaurice ArchambaudFRAFrance01:16:04  +  00:00:00=44,172 
4 FRAAndré LeducqFRAFrance01:16:04  +  00:00:00=44,172 
5 FRAJean FontenayFRAFrance B01:16:04  +  00:00:00=44,172 
6 FRAJulien MoineauFRAFrance B01:16:04  +  00:00:00=44,172 
7 BELRomain MaesBELBelgium01:16:31  +  00:00:27=43,912 
8 BELSylvère MaesBELBelgium B01:16:31  +  00:00:27=43,912 
9 BELFélicien VervaeckeBELBelgium01:16:31  +  00:00:27=43,912 
10 BELLouis HardiquestBELBelgium01:16:41  +  00:00:37=43,817 
11 BELAntoine DignefBELBelgium B01:16:55  +  00:00:51=43,684 
12 ITAAmbrogio MorelliITACadetti Italiens01:17:34  +  00:01:30=43,318 
13 ITAFrancesco CamussoITAItaly01:17:34  +  00:01:30=43,318 
14 ITAVasco BergamaschiITAItaly01:17:34  +  00:01:30=43,318 
15 ITALuigi GiacobbeITAItaly01:17:34  +  00:01:30=43,318 
16 ITAOrlando TeaniITACadetti Italiens01:17:34  +  00:01:30=43,318 
17 ITAPietro RimoldiITACadetti Italiens01:17:34  +  00:01:30=43,318 
18 GERGeorg StachDEUGermany B01:17:49  +  00:01:45=43,178 
19 GEROskar ThierbachDEUGermany01:17:49  +  00:01:45=43,178 
20 GERBruno RothDEUGermany B01:17:49  +  00:01:45=43,178 
21 GERGeorg UmbenhauerDEUGermany01:17:49  +  00:01:45=43,178 
22 GERGeorge HaendelDEUGermany B01:17:49  +  00:01:45=43,178 
23 BELJean AertsBELBelgium01:18:17  +  00:02:13=42,921 
24 ITAAldo BertoccoTouristes Routiers01:18:19  +  00:02:15=42,903 
25 ITAOreste BernardoniTouristes Routiers01:18:19  +  00:02:15=42,903 
26 FRARené BernardTouristes Routiers01:18:19  +  00:02:15=42,903 
27 FRAJoseph MauclairTouristes Routiers01:18:19  +  00:02:15=42,903 
28 ITADante GianelloTouristes Routiers01:18:19  +  00:02:15=42,903 
29 FRAPierre CoganTouristes Routiers01:18:19  +  00:02:15=42,903 
30 FRACharles BertyTouristes Routiers01:18:19  +  00:02:15=42,903 
31 ESPThéodore LadronTouristes Routiers01:18:19  +  00:02:15=42,903 
32 BELJules LowieBELBelgium B01:18:22  +  00:02:18=42,875 
33 ESPAntonio PriorESPSpain01:20:35  +  00:04:31=41,696 
34 SUILéo AmbergCHESwitzerland01:20:35  +  00:04:31=41,696 
35 SUIKurt StettlerCHESwitzerland01:20:35  +  00:04:31=41,696 
36 SUIFritz HartmannCHESwitzerland01:20:35  +  00:04:31=41,696 
37 ESPSalvador CardonaESPSpain01:20:35  +  00:04:31=41,696 
38 ESPVicente BacheroESPSpain B01:20:35  +  00:04:31=41,696 
39 FRAPaul ChocqueTouristes Routiers01:20:40  +  00:04:36=41,653 
40 FRAFernand FayolleTouristes Routiers01:20:49  +  00:04:45=41,576 
41 FRACharles PelissierFRAFrance B01:20:49  +  00:04:45=41,576 
42 FRAGeorges HubatzTouristes Routiers01:20:49  +  00:04:45=41,576 
43 ESPManuel GarciaTouristes Routiers01:20:49  +  00:04:45=41,576 
44 FRAPierre-Marie CloarecTouristes Routiers01:20:49  +  00:04:45=41,576 
45 FRABenoit FaureTouristes Routiers01:20:49  +  00:04:45=41,576 
46 FRAGeorges LachatTouristes Routiers01:21:00  +  00:04:56=41,481 
47 FRAGabriel RuozziTouristes Routiers01:21:00  +  00:04:56=41,481 
48 GEROtto WeckerlingDEUGermany01:24:53  +  00:08:49=39,584 
49 GERFerdinand IckesDEUGermany B01:24:53  +  00:08:49=39,584 
50 GERWilly KutschbachDEUGermany01:25:35  +  00:09:31=39,260 
51 FRAHonore GranierTouristes Routiers01:25:49  +  00:09:45=39,153 
52 FRALouis ThiétardTouristes Routiers01:28:17  +  00:12:13=38,059 
53 FRARené Le GrevesFRAFrance01:30:14  +  00:14:10=37,237 


Todays birthdays.

1877  Antoine Perrichon
1878  Auguste Berthault
1911  Théo Herckenrath
1924  Carlo Lafranchi
1931  Armand Di Caro
1937  Jean-Claude Lebaube
1951  Giovanni Battaglin
1961  Pascal Jules
1962  Jean-Claude Leclercq
1976  Janek Tombak
1978  Francisco Pérez
1983  Dries Devenyns




Visits: